Time;durP1;ratioP1;P1;durP2;ratioP2;P2;SDS_P1;SDS_P2;PMS_P1;PMS_P2;Temp;Humidity;BMP_temperature;BMP_pressure;BME280_temperature;BME280_humidity;BME280_pressure;Samples;Min_cycle;Max_cycle;Signal;HPM_P1;HPM_P2
2022/06/30 00:02:18;;;;;;;14.70;11.75;;;;;;;19.17;81.03;100982.44;5009679;28;20480;-82
2022/06/30 00:04:44;;;;;;;13.30;11.45;;;;;;;19.15;81.08;100977.28;5009921;28;20026;-82
2022/06/30 00:07:09;;;;;;;13.90;11.75;;;;;;;19.11;81.55;100981.28;5009806;28;20030;-83
2022/06/30 00:09:42;;;;;;;26.02;11.05;;;;;;;19.07;82.23;100983.44;4996333;28;20038;-82
2022/06/30 00:12:07;;;;;;;10.55;9.43;;;;;;;19.07;82.41;100970.13;5004498;28;20037;-82
2022/06/30 00:14:36;;;;;;;13.98;9.48;;;;;;;19.01;82.74;100972.63;4987167;28;20022;-83
2022/06/30 00:17:01;;;;;;;10.77;9.43;;;;;;;18.99;82.96;100967.44;4995775;28;20073;-82
2022/06/30 00:19:27;;;;;;;10.57;9.50;;;;;;;18.97;83.01;100964.13;5008997;28;20073;-83
2022/06/30 00:21:53;;;;;;;12.77;9.55;;;;;;;18.83;83.78;100961.28;5006766;28;20071;-82
2022/06/30 00:24:19;;;;;;;10.05;9.05;;;;;;;18.83;83.84;100955.94;5023370;28;20127;-83
2022/06/30 00:26:44;;;;;;;11.10;8.68;;;;;;;18.86;83.44;100953.78;4989428;28;20030;-81
2022/06/30 00:29:11;;;;;;;13.60;8.88;;;;;;;18.77;83.67;100952.06;5012026;28;20021;-84
2022/06/30 00:31:37;;;;;;;12.68;9.65;;;;;;;18.69;84.20;100952.88;5007694;28;20432;-81
2022/06/30 00:34:02;;;;;;;14.13;9.15;;;;;;;18.68;84.12;100947.72;5040595;28;20116;-82
2022/06/30 00:36:33;;;;;;;11.88;8.55;;;;;;;18.59;84.65;100946.00;5012760;28;20029;-82
2022/06/30 00:38:59;;;;;;;11.02;8.63;;;;;;;18.57;84.73;100948.84;5018059;28;20087;-75
2022/06/30 00:41:24;;;;;;;9.70;8.70;;;;;;;18.57;84.63;100948.84;5022592;28;20025;-82
2022/06/30 00:43:49;;;;;;;10.40;9.30;;;;;;;18.50;84.94;100944.34;5011075;28;20036;-82
2022/06/30 00:46:27;;;;;;;10.48;8.45;;;;;;;18.45;85.02;100961.63;5026514;28;20060;-82
2022/06/30 00:48:53;;;;;;;10.38;8.45;;;;;;;18.41;85.11;100954.09;5023725;28;20550;-82
2022/06/30 00:51:19;;;;;;;9.88;8.90;;;;;;;18.41;85.21;100964.75;5025127;28;20044;-82
2022/06/30 00:53:46;;;;;;;9.70;8.63;;;;;;;18.32;85.74;100965.72;5016194;28;20104;-82
2022/06/30 00:56:14;;;;;;;10.40;9.27;;;;;;;18.32;85.91;100966.56;5027691;28;20025;-81
2022/06/30 00:58:41;;;;;;;11.30;8.98;;;;;;;18.30;85.59;100967.72;5024370;28;20038;-82
2022/06/30 01:01:11;;;;;;;10.60;8.73;;;;;;;18.22;86.25;100957.03;5023437;28;20021;-82
2022/06/30 01:03:37;;;;;;;10.60;9.50;;;;;;;18.25;86.05;100959.38;5015300;28;20533;-82
2022/06/30 01:06:06;;;;;;;11.25;10.10;;;;;;;18.23;87.01;100956.06;5013362;28;20482;-82
2022/06/30 01:08:33;;;;;;;12.90;10.32;;;;;;;18.22;86.95;100955.22;5018130;28;20032;-82
2022/06/30 01:13:47;;;;;;;10.63;9.15;;;;;;;18.13;86.41;100959.69;5028403;28;20040;-82
2022/06/30 01:16:12;;;;;;;12.65;9.77;;;;;;;18.09;87.13;100960.16;5012350;28;20046;-82
2022/06/30 01:18:42;;;;;;;13.57;10.13;;;;;;;18.04;87.63;100963.31;5017010;28;20103;-75
2022/06/30 01:21:07;;;;;;;11.10;9.93;;;;;;;18.03;87.25;100958.97;5011145;28;20021;-82
2022/06/30 01:23:33;;;;;;;13.02;10.60;;;;;;;18.09;87.07;100960.16;5011222;28;20034;-82
2022/06/30 01:25:58;;;;;;;11.13;9.82;;;;;;;18.06;87.38;100955.16;5011984;28;20028;-82
2022/06/30 01:28:25;;;;;;;9.40;8.60;;;;;;;18.03;86.76;100963.47;5011289;28;20037;-82
2022/06/30 01:30:51;;;;;;;10.18;9.18;;;;;;;18.00;86.86;100961.94;5010915;28;20054;-75
2022/06/30 01:33:16;;;;;;;10.05;9.15;;;;;;;18.00;86.45;100967.25;5010125;28;20108;-82
2022/06/30 01:35:41;;;;;;;11.52;9.50;;;;;;;17.97;86.84;100966.72;5011448;28;20026;-82
2022/06/30 01:38:07;;;;;;;11.90;9.02;;;;;;;17.95;86.62;100966.06;5011833;28;20048;-82
2022/06/30 01:40:35;;;;;;;10.73;9.55;;;;;;;17.89;86.51;100967.53;5001879;28;20053;-82
2022/06/30 01:43:02;;;;;;;13.40;9.20;;;;;;;17.88;86.55;100967.69;5004327;28;20034;-75
2022/06/30 01:45:27;;;;;;;11.32;8.98;;;;;;;17.87;86.52;100972.19;5027605;28;20017;-82
2022/06/30 01:47:53;;;;;;;11.85;9.32;;;;;;;17.81;86.91;100970.97;5012549;28;20492;-82
2022/06/30 01:50:27;;;;;;;10.02;9.07;;;;;;;17.77;87.09;100966.97;5024663;28;20065;-82
2022/06/30 01:52:53;;;;;;;10.13;9.13;;;;;;;17.77;87.13;100966.97;5021817;28;20087;-82
2022/06/30 01:55:18;;;;;;;12.10;9.10;;;;;;;17.67;87.48;100968.91;5015907;28;20299;-82
2022/06/30 01:57:44;;;;;;;10.90;9.38;;;;;;;17.75;86.98;100962.81;5027088;28;20130;-82
2022/06/30 02:00:13;;;;;;;12.07;8.88;;;;;;;17.68;87.40;100972.41;5015553;28;20021;-82
2022/06/30 02:02:39;;;;;;;10.13;8.80;;;;;;;17.68;87.30;100969.75;5014739;28;20037;-82
2022/06/30 02:05:06;;;;;;;11.07;9.73;;;;;;;17.61;87.72;100961.53;5009674;28;20025;-82
2022/06/30 02:07:35;;;;;;;11.13;9.48;;;;;;;17.58;87.72;100969.78;5012494;28;20033;-82
2022/06/30 02:10:00;;;;;;;10.55;8.98;;;;;;;17.59;87.85;100973.28;5014968;28;20026;-82
2022/06/30 02:15:11;;;;;;;14.43;8.85;;;;;;;17.51;87.90;100984.72;5004523;28;20565;-82
2022/06/30 02:17:37;;;;;;;10.38;9.48;;;;;;;17.51;87.71;100977.56;5009712;28;20046;-82
2022/06/30 02:20:03;;;;;;;16.25;9.82;;;;;;;17.50;87.80;100983.03;5021140;28;20034;-82
2022/06/30 02:22:34;;;;;;;19.77;11.20;;;;;;;17.47;87.26;100976.19;5005299;28;20014;-81
2022/06/30 02:24:59;;;;;;;11.35;9.90;;;;;;;17.44;87.72;100979.19;5005384;28;20084;-82
2022/06/30 02:27:25;;;;;;;13.98;10.55;;;;;;;17.47;87.83;100999.31;5006319;28;20021;-82
2022/06/30 02:29:52;;;;;;;15.80;10.93;;;;;;;17.38;87.34;100997.59;5014443;28;20100;-82
2022/06/30 02:32:18;;;;;;;13.43;12.05;;;;;;;17.39;86.94;100989.44;5015251;28;20053;-82
2022/06/30 02:34:44;;;;;;;13.20;11.32;;;;;;;17.37;87.07;100991.44;5012606;28;20025;-81
2022/06/30 02:37:09;;;;;;;14.20;11.50;;;;;;;17.32;87.63;100980.41;5020473;28;20018;-82
2022/06/30 02:39:34;;;;;;;14.48;11.25;;;;;;;17.30;87.33;100987.72;5004284;28;20040;-82
2022/06/30 02:42:04;;;;;;;12.43;11.15;;;;;;;17.29;86.91;100988.72;5016159;28;20076;-75
2022/06/30 02:44:29;;;;;;;11.95;10.57;;;;;;;17.21;87.59;100980.63;5008285;28;20075;-81
2022/06/30 02:46:55;;;;;;;12.55;11.25;;;;;;;17.22;87.12;100979.69;5014497;28;20413;-81
2022/06/30 02:49:21;;;;;;;13.13;11.15;;;;;;;17.16;87.44;100980.25;5016137;28;20831;-81
2022/06/30 02:51:47;;;;;;;15.07;11.35;;;;;;;17.13;87.18;100989.38;5006407;28;20037;-76
2022/06/30 02:54:13;;;;;;;14.15;11.27;;;;;;;17.10;87.24;100980.88;5012540;28;20021;-74
2022/06/30 02:56:39;;;;;;;14.20;11.50;;;;;;;17.09;86.98;100981.88;5017872;28;20055;-82
2022/06/30 02:59:04;;;;;;;14.23;12.18;;;;;;;17.03;87.48;100983.31;5012496;28;20555;-81
2022/06/30 03:01:29;;;;;;;12.82;10.82;;;;;;;17.04;87.62;100979.66;5010307;28;20033;-82
2022/06/30 03:03:56;;;;;;;15.13;11.75;;;;;;;16.95;87.51;100977.91;5008563;28;20033;-82
2022/06/30 03:06:22;;;;;;;14.15;10.85;;;;;;;16.91;88.64;100974.72;5026047;28;20022;-81
2022/06/30 03:08:50;;;;;;;13.05;11.18;;;;;;;16.91;88.85;100984.53;5023773;28;20048;-81
2022/06/30 03:11:16;;;;;;;13.45;11.60;;;;;;;16.81;88.73;100973.09;5015407;28;20396;-81
2022/06/30 03:13:45;;;;;;;13.75;11.98;;;;;;;16.78;88.78;100973.41;5006635;28;20094;-81
2022/06/30 03:16:13;;;;;;;13.88;11.50;;;;;;;16.85;88.67;100970.03;5008225;28;20401;-81
2022/06/30 03:18:40;;;;;;;15.52;11.95;;;;;;;16.73;88.77;100971.22;5024887;28;20033;-81
2022/06/30 03:21:06;;;;;;;16.40;11.27;;;;;;;16.75;88.79;100973.72;5017192;28;20025;-82
2022/06/30 03:23:32;;;;;;;13.02;11.70;;;;;;;16.67;89.08;100969.16;5021030;28;20025;-81
2022/06/30 03:25:57;;;;;;;14.13;11.50;;;;;;;16.66;89.49;100966.66;5023539;28;20113;-81
2022/06/30 03:28:23;;;;;;;12.57;11.38;;;;;;;16.69;89.60;100969.84;5010107;28;20025;-81
2022/06/30 03:30:49;;;;;;;14.70;12.25;;;;;;;16.61;89.19;100967.06;5034559;28;20029;-81
2022/06/30 03:33:15;;;;;;;15.20;11.57;;;;;;;16.61;89.64;100967.06;5008723;28;20106;-82
2022/06/30 03:35:41;;;;;;;13.25;11.88;;;;;;;16.59;90.19;100966.38;5005444;28;20037;-82
2022/06/30 03:38:06;;;;;;;13.25;11.80;;;;;;;16.57;89.97;100966.53;5016052;28;20025;-82
2022/06/30 03:40:32;;;;;;;13.13;11.73;;;;;;;16.55;90.06;100957.88;5025687;28;20033;-75
2022/06/30 03:42:59;;;;;;;12.50;11.20;;;;;;;16.47;90.34;100959.63;5019202;28;20492;-75
2022/06/30 03:45:26;;;;;;;14.13;10.82;;;;;;;16.58;89.47;100957.56;5011685;28;20034;-82
2022/06/30 03:47:51;;;;;;;12.77;11.48;;;;;;;16.50;89.83;100956.66;5009566;28;20630;-81
2022/06/30 03:50:17;;;;;;;12.02;10.93;;;;;;;16.52;89.72;100962.66;5016974;28;20059;-81
2022/06/30 03:52:42;;;;;;;12.65;10.93;;;;;;;16.53;89.66;100956.34;5021208;28;20089;-82
2022/06/30 03:55:08;;;;;;;14.10;11.40;;;;;;;16.50;89.27;100965.47;5010286;28;20554;-81
2022/06/30 03:57:33;;;;;;;12.20;10.98;;;;;;;16.53;89.41;100953.69;5010189;28;20437;-81
2022/06/30 04:00:07;;;;;;;14.77;10.90;;;;;;;16.56;90.02;100953.41;5006596;28;20092;-81
2022/06/30 04:02:32;;;;;;;12.38;11.07;;;;;;;16.51;89.95;100955.69;5013734;28;20022;-82
2022/06/30 04:05:00;;;;;;;12.80;11.60;;;;;;;16.61;90.38;100959.09;5012124;28;20037;-81
2022/06/30 04:07:27;;;;;;;14.40;11.20;;;;;;;17.17;89.03;100955.34;5009823;28;20030;-82
2022/06/30 04:09:53;;;;;;;11.75;10.55;;;;;;;18.23;84.23;100953.38;5008273;28;20354;-81
2022/06/30 04:12:18;;;;;;;11.82;10.20;;;;;;;18.79;80.33;100937.56;5008165;28;20437;-82
2022/06/30 04:14:47;;;;;;;11.38;9.27;;;;;;;19.54;76.98;100947.28;5015004;28;20053;-77
2022/06/30 04:17:12;;;;;;;12.98;9.98;;;;;;;20.21;73.89;100945.09;5010642;28;20509;-82
2022/06/30 04:19:38;;;;;;;9.80;8.80;;;;;;;21.03;70.94;100966.88;5011279;28;20033;-82
2022/06/30 04:22:04;;;;;;;15.85;8.38;;;;;;;21.07;68.52;100952.13;5019537;28;20018;-82
2022/06/30 04:24:30;;;;;;;11.93;9.02;;;;;;;20.51;70.49;100972.91;5016985;28;20038;-82
2022/06/30 04:26:55;;;;;;;11.63;9.38;;;;;;;20.18;71.35;100967.66;5031251;28;20045;-82
2022/06/30 04:29:21;;;;;;;11.63;9.10;;;;;;;19.80;72.77;100966.59;5024579;28;20029;-82
2022/06/30 04:34:30;;;;;;;11.02;8.43;;;;;;;19.59;73.79;100982.31;5025242;28;20077;-81
2022/06/30 04:36:56;;;;;;;11.65;10.18;;;;;;;19.09;75.45;101025.97;5037570;28;20025;-81
2022/06/30 04:39:21;;;;;;;16.10;12.77;;;;;;;18.75;76.86;100981.56;5025640;28;20030;-82
2022/06/30 04:41:47;;;;;;;15.90;12.60;;;;;;;18.47;78.36;100990.78;5024124;28;20135;-84
2022/06/30 04:44:14;;;;;;;15.50;12.45;;;;;;;18.25;79.70;101028.63;5015878;28;20488;-82
2022/06/30 04:46:39;;;;;;;15.88;13.15;;;;;;;17.96;81.14;100997.84;5010249;28;20204;-81
2022/06/30 04:49:05;;;;;;;15.15;13.13;;;;;;;17.98;81.81;101017.16;5022077;28;20105;-81
2022/06/30 04:51:31;;;;;;;16.17;13.93;;;;;;;17.81;82.72;101031.38;5012885;28;20053;-81
2022/06/30 04:53:57;;;;;;;16.33;14.73;;;;;;;17.67;83.99;101013.31;5019275;28;20477;-82
2022/06/30 04:56:22;;;;;;;20.77;15.57;;;;;;;17.67;84.27;101029.28;5009972;28;20398;-81
2022/06/30 04:58:48;;;;;;;17.42;15.82;;;;;;;17.53;84.83;101012.81;5009169;28;20044;-84
2022/06/30 05:01:14;;;;;;;19.00;17.02;;;;;;;17.47;85.44;101010.78;5016634;28;20368;-81
2022/06/30 05:03:40;;;;;;;20.08;18.05;;;;;;;17.45;85.80;101028.72;5019548;28;20498;-82
2022/06/30 05:06:05;;;;;;;22.35;19.38;;;;;;;17.36;86.46;101021.69;5018705;28;20105;-83
2022/06/30 05:08:32;;;;;;;22.65;20.35;;;;;;;17.38;86.47;101022.34;5011918;28;20029;-82
2022/06/30 05:10:58;;;;;;;21.33;19.15;;;;;;;17.41;86.67;101016.72;5010821;28;20034;-82
2022/06/30 05:13:25;;;;;;;23.23;20.75;;;;;;;17.38;86.87;101025.03;5020341;28;20034;-82
2022/06/30 05:15:50;;;;;;;24.67;20.80;;;;;;;17.37;87.07;101007.38;5016055;28;20054;-81
2022/06/30 05:18:16;;;;;;;22.70;20.30;;;;;;;17.42;86.65;101015.75;5037507;28;20033;-81
2022/06/30 05:20:41;;;;;;;26.38;21.80;;;;;;;17.34;87.23;101017.50;5015673;28;20054;-82
2022/06/30 05:23:08;;;;;;;24.33;21.77;;;;;;;17.32;87.42;101015.00;5017000;28;20022;-82
2022/06/30 05:26:34;;;;;;;25.60;22.88;;;;;;;17.32;87.63;101020.31;5013944;28;20129;-82
2022/06/30 05:28:31;;;;;;;25.27;22.52;;;;;;;17.20;87.48;101009.06;5016804;28;20026;-82
2022/06/30 05:30:56;;;;;;;27.20;22.38;;;;;;;17.29;88.18;101015.31;5018068;28;20710;-81
2022/06/30 05:33:25;;;;;;;25.88;21.38;;;;;;;17.30;87.93;101022.28;5011217;28;20052;-83
2022/06/30 05:35:52;;;;;;;22.75;20.25;;;;;;;17.30;87.03;101021.47;5011752;28;20076;-83
2022/06/30 05:38:18;;;;;;;22.77;19.80;;;;;;;17.35;86.65;101029.81;5011538;28;20026;-83
2022/06/30 05:40:47;;;;;;;21.90;17.65;;;;;;;17.45;86.36;101015.44;5026920;28;20395;-82
2022/06/30 05:43:16;;;;;;;20.38;17.27;;;;;;;17.51;86.12;101020.13;5007998;28;20025;-82
2022/06/30 05:45:46;;;;;;;18.33;16.33;;;;;;;17.53;85.84;101023.47;5031088;28;20097;-82
2022/06/30 05:48:11;;;;;;;18.60;14.88;;;;;;;17.55;85.22;101026.81;5006620;28;20112;-81
2022/06/30 05:50:37;;;;;;;16.83;14.93;;;;;;;17.57;84.88;101015.19;5018005;28;20069;-81
2022/06/30 05:53:02;;;;;;;18.02;14.30;;;;;;;17.58;84.85;101025.66;5012699;28;20076;-81
2022/06/30 05:55:35;;;;;;;16.58;14.32;;;;;;;17.59;84.85;101029.16;5012555;28;20029;-82
2022/06/30 05:58:09;;;;;;;15.07;13.02;;;;;;;17.63;84.84;101030.56;5014299;28;20034;-81
2022/06/30 06:00:35;;;;;;;20.20;14.30;;;;;;;17.61;84.62;101016.53;5011650;28;20085;-81
2022/06/30 06:03:04;;;;;;;17.50;13.43;;;;;;;17.59;85.44;101026.50;5013343;28;20029;-83
2022/06/30 06:05:33;;;;;;;17.38;12.30;;;;;;;17.66;85.00;101028.41;5029511;28;20037;-81
2022/06/30 06:08:17;;;;;;;14.60;11.65;;;;;;;17.74;84.65;101030.31;5006747;28;20450;-82
2022/06/30 06:10:43;;;;;;;21.05;12.50;;;;;;;17.73;84.61;101032.16;5010216;28;20034;-82
2022/06/30 06:13:09;;;;;;;13.50;12.10;;;;;;;17.69;84.54;101032.63;5011734;28;20040;-75
2022/06/30 06:15:36;;;;;;;17.50;12.68;;;;;;;17.68;85.40;101030.94;5009694;28;20025;-83
2022/06/30 06:18:04;;;;;;;15.88;12.45;;;;;;;17.69;85.83;101043.28;5000357;28;20466;-75
2022/06/30 06:20:36;;;;;;;18.77;12.55;;;;;;;17.72;86.01;101037.63;4996898;28;20030;-83
2022/06/30 06:23:02;;;;;;;20.17;12.73;;;;;;;17.75;85.82;101037.31;5000242;28;20121;-83
2022/06/30 06:25:27;;;;;;;17.73;12.45;;;;;;;17.83;85.80;101037.38;5017707;28;20046;-83
2022/06/30 06:30:41;;;;;;;18.95;12.13;;;;;;;17.97;85.41;101047.44;5032794;28;20032;-83
2022/06/30 06:33:10;;;;;;;14.93;11.60;;;;;;;18.05;85.20;101050.19;5034292;28;20094;-83
2022/06/30 06:35:35;;;;;;;17.25;12.38;;;;;;;18.04;84.17;101056.50;5029220;28;20053;-83
2022/06/30 06:38:01;;;;;;;16.25;11.80;;;;;;;18.05;84.42;101060.84;5034683;28;20013;-83
2022/06/30 06:40:33;;;;;;;17.50;11.70;;;;;;;18.12;84.40;101053.88;5034092;28;20022;-83
2022/06/30 06:43:01;;;;;;;19.55;11.07;;;;;;;18.12;84.33;101050.38;5032242;28;20054;-83
2022/06/30 06:45:26;;;;;;;16.42;11.40;;;;;;;18.19;84.77;101050.59;5028063;28;20010;-83
2022/06/30 06:47:52;;;;;;;20.60;11.38;;;;;;;18.19;85.22;101055.91;5017215;28;20061;-83
2022/06/30 06:50:18;;;;;;;18.95;11.48;;;;;;;18.31;84.81;101054.63;5038219;28;20022;-83
2022/06/30 06:52:43;;;;;;;17.27;11.60;;;;;;;18.38;84.19;101058.34;5045938;28;20021;-83
2022/06/30 06:55:09;;;;;;;16.30;11.63;;;;;;;18.44;83.49;101065.72;5034139;28;20045;-83
2022/06/30 06:57:38;;;;;;;17.65;10.63;;;;;;;18.55;83.98;101067.25;5050602;28;20010;-83
2022/06/30 07:00:06;;;;;;;15.90;10.80;;;;;;;18.63;83.92;101062.81;5033249;28;20014;-79
2022/06/30 07:02:32;;;;;;;15.55;10.68;;;;;;;18.78;83.41;101063.88;5044255;28;20036;-75
2022/06/30 07:05:00;;;;;;;16.88;10.02;;;;;;;18.89;82.14;101069.94;5037424;28;20030;-84
2022/06/30 07:07:26;;;;;;;14.23;10.18;;;;;;;19.04;81.76;101077.13;5046187;28;20038;-77
2022/06/30 07:09:51;;;;;;;16.73;9.82;;;;;;;19.18;80.75;101078.31;5036953;28;20020;-84
2022/06/30 07:12:55;;;;;;;13.70;9.73;;;;;;;19.42;79.82;101083.72;5035479;28;20025;-82
2022/06/30 07:21:26;;;;;;;12.65;8.77;;;;;;;20.15;76.95;101101.59;5079140;23;20040;-85
2022/06/30 07:23:52;;;;;;;12.68;8.07;;;;;;;20.25;75.11;101106.75;4909389;29;20044;-80
2022/06/30 07:26:33;;;;;;;13.85;7.97;;;;;;;20.51;76.26;101096.69;4880534;29;20185;-86
2022/06/30 07:29:02;;;;;;;13.50;8.35;;;;;;;20.72;73.68;101101.47;4949984;23;20021;-85
2022/06/30 07:31:27;;;;;;;14.45;7.00;;;;;;;20.85;72.86;101088.38;4928940;29;20029;-85
2022/06/30 07:34:00;;;;;;;15.07;7.28;;;;;;;21.00;72.82;101085.78;4936501;29;20103;-85
2022/06/30 07:39:03;;;;;;;12.45;6.90;;;;;;;21.30;69.56;101084.16;4986517;23;19913;-85
2022/06/30 07:41:34;;;;;;;15.98;6.72;;;;;;;21.64;69.58;101093.63;4927343;29;20036;-84
2022/06/30 07:44:01;;;;;;;12.23;5.85;;;;;;;21.84;68.04;101090.25;4924606;29;20024;-84
2022/06/30 07:46:29;;;;;;;9.52;5.53;;;;;;;21.99;68.05;101092.94;4931975;28;20035;-84
2022/06/30 07:48:55;;;;;;;11.00;5.55;;;;;;;22.23;66.18;101085.72;4945590;29;20476;-84
2022/06/30 07:51:21;;;;;;;13.95;5.47;;;;;;;22.22;65.38;101084.88;4942656;29;20047;-84
2022/06/30 07:53:55;;;;;;;10.57;4.60;;;;;;;22.60;65.58;101095.53;4930217;29;20028;-85
2022/06/30 07:56:35;;;;;;;11.27;5.47;;;;;;;22.62;64.28;101085.44;4901174;29;20035;-86
2022/06/30 07:59:00;;;;;;;11.25;4.82;;;;;;;22.76;64.00;101082.75;4923868;29;20016;-86
2022/06/30 08:01:26;;;;;;;12.60;5.03;;;;;;;22.94;62.08;101074.34;4922635;29;20095;-86
2022/06/30 08:04:39;;;;;;;10.05;5.20;;;;;;;23.05;62.95;101073.84;4931280;29;20107;-88
2022/06/30 08:10:14;;;;;;;14.15;4.63;;;;;;;23.32;61.53;101071.44;4892024;29;20100;-88
2022/06/30 08:13:01;;;;;;;11.63;4.95;;;;;;;23.44;60.44;101062.69;4897896;29;20068;-88
2022/06/30 08:22:24;;;;;;;;;;;;;;;;;;;;;
2022/06/30 08:24:57;;;;;;;8.95;4.00;;;;;;;23.72;58.28;101073.50;4871501;29;20057;-89
2022/06/30 08:27:25;;;;;;;8.95;4.00;;;;;;;23.77;57.94;101072.09;4878225;29;20048;-89
2022/06/30 08:29:51;;;;;;;8.90;4.05;;;;;;;23.73;57.48;101082.41;4878611;29;20228;-88
2022/06/30 08:32:45;;;;;;;13.18;4.82;;;;;;;23.97;58.82;101090.03;4876008;29;20033;-83
2022/06/30 08:58:47;;;;;;;12.70;4.75;;;;;;;24.83;57.98;101085.22;4830952;29;20084;-84
2022/06/30 09:01:22;;;;;;;9.43;4.53;;;;;;;24.97;55.99;101086.06;4834387;29;20052;-83
2022/06/30 09:04:01;;;;;;;10.10;4.63;;;;;;;24.77;53.49;101086.00;4897670;29;20111;-84
2022/06/30 09:06:27;;;;;;;10.10;3.90;;;;;;;24.85;54.82;101083.16;4892337;29;20033;-84
2022/06/30 09:09:15;;;;;;;7.85;4.22;;;;;;;24.96;54.88;101084.41;4892141;29;20037;-84
2022/06/30 09:12:04;;;;;;;;;;;;;;;;;;;;;
2022/06/30 09:14:36;;;;;;;10.25;3.42;;;;;;;25.26;53.85;101090.34;4872200;29;20048;-84
2022/06/30 09:17:35;;;;;;;9.27;4.45;;;;;;;25.33;54.31;101096.56;4898241;29;20063;-84
2022/06/30 09:20:14;;;;;;;12.40;3.42;;;;;;;25.31;54.50;101093.25;4884863;29;20058;-85
2022/06/30 09:22:42;;;;;;;10.50;3.47;;;;;;;25.26;53.18;101090.34;4904611;29;20115;-84
2022/06/30 09:25:09;;;;;;;6.80;3.30;;;;;;;25.33;52.47;101091.19;4883033;29;20071;-83
2022/06/30 09:27:39;;;;;;;8.65;3.38;;;;;;;25.23;52.67;101085.38;4878513;29;20044;-83
2022/06/30 09:30:19;;;;;;;8.85;3.28;;;;;;;25.38;54.79;101094.09;4899598;29;20552;-83
2022/06/30 09:32:47;;;;;;;6.85;2.90;;;;;;;25.53;51.48;101093.91;4894289;29;20389;-79
2022/06/30 09:35:15;;;;;;;9.80;3.50;;;;;;;25.51;51.97;101090.59;4896961;29;20043;-83
2022/06/30 09:37:41;;;;;;;9.18;3.65;;;;;;;25.76;52.25;101085.47;4894767;29;20033;-84
2022/06/30 09:40:08;;;;;;;6.93;2.75;;;;;;;25.76;50.91;101096.25;4899097;29;20527;-83
2022/06/30 09:42:40;;;;;;;8.10;2.90;;;;;;;25.71;52.17;101099.56;4898031;29;20028;-83
2022/06/30 09:45:08;;;;;;;7.13;3.17;;;;;;;25.41;50.79;101093.69;4915307;29;20024;-83
2022/06/30 09:47:51;;;;;;;8.77;3.15;;;;;;;25.34;50.57;101100.09;4915378;29;20028;-83
2022/06/30 09:50:16;;;;;;;6.80;2.58;;;;;;;25.47;50.80;101092.84;4886007;29;20032;-84
2022/06/30 09:52:42;;;;;;;7.22;2.92;;;;;;;25.57;51.21;101101.38;4914503;29;20593;-83
2022/06/30 09:55:12;;;;;;;7.50;2.67;;;;;;;25.82;51.66;101096.25;4899046;29;20123;-84
2022/06/30 09:57:45;;;;;;;11.88;2.95;;;;;;;26.04;51.27;101094.16;4898245;29;20125;-84
2022/06/30 10:00:17;;;;;;;9.25;2.97;;;;;;;26.24;50.39;101094.97;4916048;29;20047;-84
2022/06/30 10:02:46;;;;;;;8.05;3.25;;;;;;;26.43;49.14;101100.56;4911289;29;20030;-83
2022/06/30 10:05:19;;;;;;;7.10;3.10;;;;;;;26.27;49.18;101093.72;4894064;29;20040;-78
2022/06/30 10:07:45;;;;;;;6.63;2.70;;;;;;;26.47;50.11;101097.25;4894096;29;20035;-79
2022/06/30 10:10:20;;;;;;;12.48;3.00;;;;;;;26.44;50.07;101100.38;4916282;29;20374;-83
2022/06/30 10:12:45;;;;;;;7.93;2.67;;;;;;;26.64;48.80;101105.69;4893463;29;20405;-83
2022/06/30 10:15:27;;;;;;;8.35;2.75;;;;;;;26.46;48.96;101109.06;4915010;29;20024;-83
2022/06/30 10:17:56;;;;;;;7.07;2.78;;;;;;;26.46;48.19;101108.25;4889724;29;20082;-83
2022/06/30 10:20:22;;;;;;;9.00;3.47;;;;;;;26.21;49.07;101098.09;4896669;29;20115;-83
2022/06/30 10:22:56;;;;;;;7.40;3.10;;;;;;;26.08;49.07;101094.59;4912606;29;20099;-83
2022/06/30 10:25:26;;;;;;;5.43;2.80;;;;;;;26.09;50.22;101088.97;4896808;29;20052;-83
2022/06/30 10:27:52;;;;;;;8.57;2.95;;;;;;;26.20;48.88;101093.72;4913093;29;20031;-84
2022/06/30 10:30:23;;;;;;;5.82;2.72;;;;;;;26.33;49.52;101087.50;4913771;29;20040;-83
2022/06/30 10:33:00;;;;;;;7.03;2.60;;;;;;;26.41;49.28;101091.84;4913769;29;20030;-83
2022/06/30 10:35:41;;;;;;;7.88;3.00;;;;;;;26.37;49.52;101091.44;4916864;29;20035;-83
2022/06/30 10:38:15;;;;;;;8.10;3.08;;;;;;;26.44;49.79;101091.44;4916956;29;20037;-83
2022/06/30 10:40:59;;;;;;;7.75;2.85;;;;;;;26.23;47.79;101093.31;4920065;29;20456;-83
2022/06/30 10:43:24;;;;;;;7.43;2.50;;;;;;;26.67;50.31;101089.06;4918503;29;20036;-83
2022/06/30 10:45:58;;;;;;;10.02;2.90;;;;;;;26.97;48.95;101091.22;4915808;29;20396;-79
2022/06/30 10:48:27;;;;;;;10.27;2.70;;;;;;;27.11;48.56;101080.16;4917106;29;20582;-79
2022/06/30 10:50:53;;;;;;;8.65;2.72;;;;;;;27.13;47.87;101088.06;4911530;29;20028;-83
2022/06/30 10:53:37;;;;;;;5.25;2.42;;;;;;;27.15;48.42;101085.97;4895276;29;20122;-83
2022/06/30 10:56:04;;;;;;;7.43;3.15;;;;;;;26.97;46.54;101077.72;4910895;29;20031;-84
2022/06/30 10:58:32;;;;;;;6.97;2.97;;;;;;;26.58;48.16;101079.53;4911819;29;20024;-84
2022/06/30 11:01:03;;;;;;;6.45;2.55;;;;;;;26.45;48.40;101090.41;4912948;29;20024;-84
2022/06/30 11:03:35;;;;;;;5.72;2.40;;;;;;;26.22;49.83;101097.03;4912041;29;20024;-84
2022/06/30 11:06:13;;;;;;;5.75;2.10;;;;;;;26.28;50.31;101095.38;4913363;29;20078;-84
2022/06/30 11:08:39;;;;;;;8.52;2.70;;;;;;;26.16;49.09;101092.50;4911007;29;20516;-81
2022/06/30 11:11:43;;;;;;;7.03;2.80;;;;;;;25.92;49.70;101091.25;4913522;29;20052;-84
2022/06/30 11:14:10;;;;;;;6.18;2.60;;;;;;;26.20;48.78;101088.31;4916477;29;20025;-85
2022/06/30 11:16:40;;;;;;;7.95;2.88;;;;;;;26.33;49.87;101083.94;4912303;29;20401;-86
2022/06/30 11:19:16;;;;;;;7.07;2.55;;;;;;;26.38;49.26;101084.16;4902151;29;20032;-85
2022/06/30 11:21:43;;;;;;;5.43;2.00;;;;;;;26.33;49.38;101070.44;4911360;29;20110;-85
2022/06/30 11:24:11;;;;;;;7.18;2.45;;;;;;;26.33;50.03;101070.44;4912218;29;20024;-85
2022/06/30 11:29:41;;;;;;;7.75;2.63;;;;;;;26.36;50.45;101067.34;4911506;29;20043;-86
2022/06/30 11:32:08;;;;;;;6.22;2.53;;;;;;;26.23;49.57;101066.31;4906875;29;20063;-86
2022/06/30 11:34:37;;;;;;;8.10;2.63;;;;;;;26.18;50.32;101063.44;4911865;29;22198;-86
2022/06/30 11:37:02;;;;;;;8.18;2.80;;;;;;;25.99;49.63;101058.06;4912072;29;20475;-82
2022/06/30 11:39:31;;;;;;;6.30;2.42;;;;;;;25.98;49.63;101056.41;4892575;29;20052;-82
2022/06/30 11:42:11;;;;;;;6.18;2.47;;;;;;;25.97;49.04;101055.56;4890887;29;20036;-82
2022/06/30 11:44:55;;;;;;;6.32;2.33;;;;;;;26.16;51.03;101053.91;4892478;29;20437;-82
2022/06/30 11:48:10;;;;;;;;;;;;;;;;;;;;;
2022/06/30 11:51:14;;;;;;;6.55;2.60;;;;;;;26.12;51.73;101052.66;4897128;29;20038;-86
2022/06/30 11:54:14;;;;;;;9.82;3.10;;;;;;;25.81;51.39;101046.06;4906483;29;20504;-86
2022/06/30 11:56:49;;;;;;;8.60;2.85;;;;;;;25.73;51.82;101034.66;4890699;29;20041;-84
2022/06/30 11:59:18;;;;;;;10.25;3.13;;;;;;;25.68;51.24;101023.69;4888903;29;20047;-84
2022/06/30 12:02:22;;;;;;;11.02;2.75;;;;;;;26.04;51.64;101024.06;4910820;29;20016;-85
2022/06/30 12:07:46;;;;;;;8.52;2.40;;;;;;;25.68;52.91;101012.91;4905059;29;20383;-86
2022/06/30 12:10:14;;;;;;;6.07;2.72;;;;;;;25.74;50.96;101006.66;4911421;29;20016;-86
2022/06/30 12:12:49;;;;;;;8.00;2.40;;;;;;;25.98;51.34;101003.28;4892260;29;20020;-86
2022/06/30 12:15:16;;;;;;;10.55;3.20;;;;;;;25.91;50.56;100992.53;4911178;29;20043;-81
2022/06/30 12:17:52;;;;;;;6.43;2.70;;;;;;;26.08;50.98;101002.88;4913267;29;20527;-85
2022/06/30 12:20:19;;;;;;;9.30;2.30;;;;;;;26.48;50.61;100990.94;4888584;29;20075;-85
2022/06/30 12:23:19;;;;;;;;;;;;;;;;;;;;;
2022/06/30 12:25:45;;;;;;;8.88;3.05;;;;;;;26.70;50.95;100990.63;4909503;29;20031;-84
2022/06/30 12:28:24;;;;;;;6.43;3.20;;;;;;;26.58;50.51;100976.16;4910904;29;20034;-84
2022/06/30 12:30:51;;;;;;;10.45;3.17;;;;;;;26.77;50.19;100970.63;4906194;29;20036;-81
2022/06/30 12:33:40;;;;;;;7.70;3.55;;;;;;;26.81;50.40;100969.16;4913548;29;20103;-84